sensor_id;sensor_type;location;lat;lon;timestamp;pressure;altitude;pressure_sealevel;temperature;humidity
2397;BME280;1209;48.410;9.054;2023-06-14T00:01:38;95741.19;;;17.17;52.50
2397;BME280;1209;48.410;9.054;2023-06-14T00:04:03;95740.50;;;17.10;53.77
2397;BME280;1209;48.410;9.054;2023-06-14T00:06:31;95737.13;;;17.03;57.24
2397;BME280;1209;48.410;9.054;2023-06-14T00:08:56;95738.44;;;17.12;61.45
2397;BME280;1209;48.410;9.054;2023-06-14T00:11:21;95742.28;;;16.97;60.83
2397;BME280;1209;48.410;9.054;2023-06-14T00:13:47;95749.06;;;16.93;61.73
2397;BME280;1209;48.410;9.054;2023-06-14T00:16:12;95745.34;;;16.71;63.83
2397;BME280;1209;48.410;9.054;2023-06-14T00:18:38;95741.03;;;16.58;68.41
2397;BME280;1209;48.410;9.054;2023-06-14T00:21:04;95743.28;;;16.55;67.89
2397;BME280;1209;48.410;9.054;2023-06-14T00:23:29;95741.66;;;16.42;67.44
2397;BME280;1209;48.410;9.054;2023-06-14T00:25:55;95750.41;;;16.24;69.21
2397;BME280;1209;48.410;9.054;2023-06-14T00:28:20;95747.50;;;16.14;67.79
2397;BME280;1209;48.410;9.054;2023-06-14T00:30:46;95743.19;;;16.01;68.86
2397;BME280;1209;48.410;9.054;2023-06-14T00:33:12;95749.19;;;15.90;69.81
2397;BME280;1209;48.410;9.054;2023-06-14T00:35:37;95746.94;;;15.76;72.10
2397;BME280;1209;48.410;9.054;2023-06-14T00:38:03;95743.34;;;15.70;71.83
2397;BME280;1209;48.410;9.054;2023-06-14T00:40:28;95739.41;;;15.61;73.69
2397;BME280;1209;48.410;9.054;2023-06-14T00:42:53;95740.72;;;15.45;73.59
2397;BME280;1209;48.410;9.054;2023-06-14T00:45:19;95748.19;;;15.48;73.90
2397;BME280;1209;48.410;9.054;2023-06-14T00:47:45;95742.47;;;15.33;70.99
2397;BME280;1209;48.410;9.054;2023-06-14T00:50:12;95748.34;;;15.53;76.58
2397;BME280;1209;48.410;9.054;2023-06-14T00:52:38;95750.38;;;15.51;76.83
2397;BME280;1209;48.410;9.054;2023-06-14T00:55:04;95747.16;;;15.49;76.42
2397;BME280;1209;48.410;9.054;2023-06-14T00:57:29;95742.78;;;15.43;75.75
2397;BME280;1209;48.410;9.054;2023-06-14T00:59:55;95737.66;;;15.30;77.27
2397;BME280;1209;48.410;9.054;2023-06-14T01:02:21;95740.28;;;15.30;75.23
2397;BME280;1209;48.410;9.054;2023-06-14T01:04:47;95740.94;;;15.25;75.12
2397;BME280;1209;48.410;9.054;2023-06-14T01:10:31;95748.44;;;15.22;73.92
2397;BME280;1209;48.410;9.054;2023-06-14T01:13:14;95749.41;;;15.27;75.27
2397;BME280;1209;48.410;9.054;2023-06-14T01:15:43;95745.38;;;15.25;73.79
2397;BME280;1209;48.410;9.054;2023-06-14T01:18:09;95746.91;;;15.14;73.15
2397;BME280;1209;48.410;9.054;2023-06-14T01:20:43;95742.44;;;15.15;74.71
2397;BME280;1209;48.410;9.054;2023-06-14T01:23:10;95744.72;;;15.04;76.88
2397;BME280;1209;48.410;9.054;2023-06-14T01:25:37;95739.03;;;14.83;77.16
2397;BME280;1209;48.410;9.054;2023-06-14T01:28:05;95736.75;;;14.93;77.58
2397;BME280;1209;48.410;9.054;2023-06-14T01:30:37;95744.19;;;14.96;77.22
2397;BME280;1209;48.410;9.054;2023-06-14T01:33:04;95741.41;;;14.91;77.59
2397;BME280;1209;48.410;9.054;2023-06-14T01:35:31;95746.28;;;14.87;76.10
2397;BME280;1209;48.410;9.054;2023-06-14T01:37:56;95737.59;;;14.87;76.16
2397;BME280;1209;48.410;9.054;2023-06-14T01:40:22;95734.97;;;14.87;78.94
2397;BME280;1209;48.410;9.054;2023-06-14T01:42:49;95743.94;;;14.79;76.72
2397;BME280;1209;48.410;9.054;2023-06-14T01:45:16;95741.69;;;14.83;77.44
2397;BME280;1209;48.410;9.054;2023-06-14T01:47:43;95741.69;;;14.83;76.22
2397;BME280;1209;48.410;9.054;2023-06-14T01:50:09;95736.00;;;14.86;76.75
2397;BME280;1209;48.410;9.054;2023-06-14T01:52:36;95746.63;;;14.66;76.29
2397;BME280;1209;48.410;9.054;2023-06-14T01:55:01;95742.00;;;14.61;77.70
2397;BME280;1209;48.410;9.054;2023-06-14T01:57:27;95738.03;;;14.52;75.67
2397;BME280;1209;48.410;9.054;2023-06-14T01:59:52;95743.50;;;14.51;75.46
2397;BME280;1209;48.410;9.054;2023-06-14T02:02:18;95738.69;;;14.41;79.63
2397;BME280;1209;48.410;9.054;2023-06-14T02:04:43;95739.13;;;14.31;79.56
2397;BME280;1209;48.410;9.054;2023-06-14T02:07:08;95739.34;;;14.30;78.27
2397;BME280;1209;48.410;9.054;2023-06-14T02:09:34;95740.81;;;14.19;80.45
2397;BME280;1209;48.410;9.054;2023-06-14T02:12:00;95745.88;;;14.14;79.60
2397;BME280;1209;48.410;9.054;2023-06-14T02:14:25;95752.78;;;14.08;82.15
2397;BME280;1209;48.410;9.054;2023-06-14T02:16:51;95746.34;;;13.98;83.09
2397;BME280;1209;48.410;9.054;2023-06-14T02:19:19;95748.84;;;13.79;82.92
2397;BME280;1209;48.410;9.054;2023-06-14T02:21:45;95751.31;;;13.61;85.23
2397;BME280;1209;48.410;9.054;2023-06-14T02:24:10;95749.91;;;13.59;84.36
2397;BME280;1209;48.410;9.054;2023-06-14T02:26:36;95747.88;;;13.61;85.90
2397;BME280;1209;48.410;9.054;2023-06-14T02:29:06;95754.34;;;13.58;85.41
2397;BME280;1209;48.410;9.054;2023-06-14T02:31:35;95745.28;;;13.54;84.19
2397;BME280;1209;48.410;9.054;2023-06-14T02:34:00;95749.09;;;13.58;85.51
2397;BME280;1209;48.410;9.054;2023-06-14T02:36:26;95738.78;;;13.70;87.32
2397;BME280;1209;48.410;9.054;2023-06-14T02:38:51;95742.81;;;13.72;85.08
2397;BME280;1209;48.410;9.054;2023-06-14T02:41:17;95742.03;;;13.59;86.55
2397;BME280;1209;48.410;9.054;2023-06-14T02:43:42;95741.41;;;13.76;86.80
2397;BME280;1209;48.410;9.054;2023-06-14T02:46:08;95740.19;;;13.66;86.13
2397;BME280;1209;48.410;9.054;2023-06-14T02:48:33;95741.81;;;13.60;85.64
2397;BME280;1209;48.410;9.054;2023-06-14T02:50:58;95743.69;;;13.40;88.93
2397;BME280;1209;48.410;9.054;2023-06-14T02:53:23;95746.09;;;13.48;89.23
2397;BME280;1209;48.410;9.054;2023-06-14T02:55:49;95744.31;;;13.42;88.94
2397;BME280;1209;48.410;9.054;2023-06-14T02:58:14;95751.91;;;13.63;89.43
2397;BME280;1209;48.410;9.054;2023-06-14T03:00:41;95740.69;;;13.36;87.85
2397;BME280;1209;48.410;9.054;2023-06-14T03:03:07;95749.38;;;13.30;86.88
2397;BME280;1209;48.410;9.054;2023-06-14T03:05:44;95750.38;;;13.29;88.11
2397;BME280;1209;48.410;9.054;2023-06-14T03:08:13;95760.25;;;13.20;88.72
2397;BME280;1209;48.410;9.054;2023-06-14T03:10:47;95753.56;;;13.11;89.46
2397;BME280;1209;48.410;9.054;2023-06-14T03:13:13;95759.22;;;13.08;91.89
2397;BME280;1209;48.410;9.054;2023-06-14T03:15:39;95762.84;;;13.14;91.83
2397;BME280;1209;48.410;9.054;2023-06-14T03:18:07;95762.06;;;13.00;90.70
2397;BME280;1209;48.410;9.054;2023-06-14T03:20:33;95764.28;;;12.97;90.02
2397;BME280;1209;48.410;9.054;2023-06-14T03:23:02;95767.50;;;12.79;92.76
2397;BME280;1209;48.410;9.054;2023-06-14T03:25:28;95770.72;;;12.81;93.44
2397;BME280;1209;48.410;9.054;2023-06-14T03:27:55;95767.09;;;12.82;94.35
2397;BME280;1209;48.410;9.054;2023-06-14T03:30:20;95772.94;;;12.84;94.69
2397;BME280;1209;48.410;9.054;2023-06-14T03:32:46;95768.50;;;12.84;92.42
2397;BME280;1209;48.410;9.054;2023-06-14T03:35:11;95772.94;;;12.77;92.28
2397;BME280;1209;48.410;9.054;2023-06-14T03:37:43;95773.09;;;12.69;94.79
2397;BME280;1209;48.410;9.054;2023-06-14T03:40:10;95780.16;;;12.75;96.99
2397;BME280;1209;48.410;9.054;2023-06-14T03:42:35;95776.72;;;12.75;95.67
2397;BME280;1209;48.410;9.054;2023-06-14T03:45:00;95767.84;;;12.63;97.75
2397;BME280;1209;48.410;9.054;2023-06-14T03:47:26;95771.06;;;12.58;99.82
2397;BME280;1209;48.410;9.054;2023-06-14T03:49:52;95778.75;;;12.66;97.77
2397;BME280;1209;48.410;9.054;2023-06-14T03:52:17;95783.78;;;12.68;96.12
2397;BME280;1209;48.410;9.054;2023-06-14T03:54:43;95780.41;;;12.80;94.58
2397;BME280;1209;48.410;9.054;2023-06-14T03:57:09;95786.19;;;12.69;95.36
2397;BME280;1209;48.410;9.054;2023-06-14T03:59:35;95787.47;;;12.86;94.86
2397;BME280;1209;48.410;9.054;2023-06-14T04:02:01;95799.75;;;12.86;92.82
2397;BME280;1209;48.410;9.054;2023-06-14T04:04:27;95788.25;;;12.80;93.44
2397;BME280;1209;48.410;9.054;2023-06-14T04:06:55;95788.66;;;12.77;95.17
2397;BME280;1209;48.410;9.054;2023-06-14T04:09:23;95789.63;;;12.63;98.49
2397;BME280;1209;48.410;9.054;2023-06-14T04:11:51;95795.84;;;12.49;100.00
2397;BME280;1209;48.410;9.054;2023-06-14T04:14:17;95803.50;;;12.50;99.23
2397;BME280;1209;48.410;9.054;2023-06-14T04:16:43;95793.19;;;12.36;100.00
2397;BME280;1209;48.410;9.054;2023-06-14T04:19:08;95807.91;;;12.37;100.00
2397;BME280;1209;48.410;9.054;2023-06-14T04:21:33;95811.56;;;12.49;99.48
2397;BME280;1209;48.410;9.054;2023-06-14T04:24:00;95823.06;;;12.54;99.94
2397;BME280;1209;48.410;9.054;2023-06-14T04:26:26;95811.78;;;12.54;100.00
2397;BME280;1209;48.410;9.054;2023-06-14T04:28:56;95819.03;;;12.65;97.46
2397;BME280;1209;48.410;9.054;2023-06-14T04:31:22;95820.47;;;12.74;95.84
2397;BME280;1209;48.410;9.054;2023-06-14T04:33:50;95817.84;;;12.68;96.40
2397;BME280;1209;48.410;9.054;2023-06-14T04:36:18;95822.06;;;12.69;97.78
2397;BME280;1209;48.410;9.054;2023-06-14T04:38:44;95822.28;;;12.67;99.08
2397;BME280;1209;48.410;9.054;2023-06-14T04:41:10;95834.34;;;12.61;98.56
2397;BME280;1209;48.410;9.054;2023-06-14T04:43:37;95830.13;;;12.60;96.63
2397;BME280;1209;48.410;9.054;2023-06-14T04:46:06;95835.97;;;12.63;99.68
2397;BME280;1209;48.410;9.054;2023-06-14T04:48:37;95836.19;;;12.68;99.35
2397;BME280;1209;48.410;9.054;2023-06-14T04:51:02;95829.75;;;12.77;96.09
2397;BME280;1209;48.410;9.054;2023-06-14T04:53:29;95832.81;;;12.87;96.21
2397;BME280;1209;48.410;9.054;2023-06-14T04:55:54;95835.84;;;12.97;96.32
2397;BME280;1209;48.410;9.054;2023-06-14T04:58:19;95839.06;;;13.06;95.03
2397;BME280;1209;48.410;9.054;2023-06-14T05:00:45;95835.66;;;13.05;93.40
2397;BME280;1209;48.410;9.054;2023-06-14T05:03:10;95839.91;;;13.19;91.93
2397;BME280;1209;48.410;9.054;2023-06-14T05:05:41;95843.19;;;13.28;89.17
2397;BME280;1209;48.410;9.054;2023-06-14T05:08:07;95838.34;;;13.25;89.21
2397;BME280;1209;48.410;9.054;2023-06-14T05:10:33;95843.97;;;13.35;88.61
2397;BME280;1209;48.410;9.054;2023-06-14T05:13:00;95836.09;;;13.42;89.36
2397;BME280;1209;48.410;9.054;2023-06-14T05:15:26;95833.69;;;13.47;89.34
2397;BME280;1209;48.410;9.054;2023-06-14T05:17:52;95835.28;;;13.54;89.57
2397;BME280;1209;48.410;9.054;2023-06-14T05:20:21;95833.44;;;13.62;90.44
2397;BME280;1209;48.410;9.054;2023-06-14T05:22:48;95827.78;;;13.65;88.25
2397;BME280;1209;48.410;9.054;2023-06-14T05:25:15;95836.09;;;13.75;88.33
2397;BME280;1209;48.410;9.054;2023-06-14T05:27:40;95834.84;;;13.91;88.35
2397;BME280;1209;48.410;9.054;2023-06-14T05:30:07;95841.91;;;13.90;87.20
2397;BME280;1209;48.410;9.054;2023-06-14T05:32:33;95835.41;;;13.99;86.85
2397;BME280;1209;48.410;9.054;2023-06-14T05:34:59;95840.63;;;14.12;86.45
2397;BME280;1209;48.410;9.054;2023-06-14T05:37:24;95842.63;;;14.24;86.29
2397;BME280;1209;48.410;9.054;2023-06-14T05:39:50;95839.13;;;14.36;88.88
2397;BME280;1209;48.410;9.054;2023-06-14T05:42:15;95846.78;;;14.51;85.73
2397;BME280;1209;48.410;9.054;2023-06-14T05:44:40;95842.72;;;14.55;85.63
2397;BME280;1209;48.410;9.054;2023-06-14T05:47:06;95841.22;;;14.72;84.89
2397;BME280;1209;48.410;9.054;2023-06-14T05:49:31;95850.88;;;14.85;86.93
2397;BME280;1209;48.410;9.054;2023-06-14T05:51:56;95848.75;;;15.00;84.83
2397;BME280;1209;48.410;9.054;2023-06-14T05:54:21;95858.34;;;15.20;81.95
2397;BME280;1209;48.410;9.054;2023-06-14T05:56:47;95857.69;;;15.24;79.78
2397;BME280;1209;48.410;9.054;2023-06-14T05:59:12;95855.34;;;15.41;79.29
2397;BME280;1209;48.410;9.054;2023-06-14T06:01:37;95859.09;;;15.52;78.11
2397;BME280;1209;48.410;9.054;2023-06-14T06:04:05;95859.41;;;15.68;78.88
2397;BME280;1209;48.410;9.054;2023-06-14T06:06:31;95863.03;;;15.92;80.53
2397;BME280;1209;48.410;9.054;2023-06-14T06:08:57;95861.19;;;15.93;78.95
2397;BME280;1209;48.410;9.054;2023-06-14T06:11:22;95865.72;;;16.04;78.88
2397;BME280;1209;48.410;9.054;2023-06-14T06:13:48;95859.97;;;16.32;76.81
2397;BME280;1209;48.410;9.054;2023-06-14T06:16:14;95855.06;;;16.35;80.18
2397;BME280;1209;48.410;9.054;2023-06-14T06:18:40;95868.16;;;16.42;76.37
2397;BME280;1209;48.410;9.054;2023-06-14T06:21:05;95871.47;;;16.56;75.54
2397;BME280;1209;48.410;9.054;2023-06-14T06:23:31;95872.41;;;16.43;74.76
2397;BME280;1209;48.410;9.054;2023-06-14T06:25:56;95874.19;;;16.67;74.28
2397;BME280;1209;48.410;9.054;2023-06-14T06:28:22;95876.59;;;16.99;74.04
2397;BME280;1209;48.410;9.054;2023-06-14T06:30:47;95876.34;;;17.19;71.51
2397;BME280;1209;48.410;9.054;2023-06-14T06:33:12;95882.44;;;17.31;71.60
2397;BME280;1209;48.410;9.054;2023-06-14T06:35:39;95888.44;;;17.38;68.30
2397;BME280;1209;48.410;9.054;2023-06-14T06:38:04;95888.44;;;17.38;67.74
2397;BME280;1209;48.410;9.054;2023-06-14T06:40:29;95883.72;;;17.28;69.66
2397;BME280;1209;48.410;9.054;2023-06-14T06:42:55;95881.13;;;17.52;70.06
2397;BME280;1209;48.410;9.054;2023-06-14T06:45:20;95883.44;;;17.60;69.53
2397;BME280;1209;48.410;9.054;2023-06-14T06:47:45;95886.31;;;17.58;68.65
2397;BME280;1209;48.410;9.054;2023-06-14T06:50:11;95886.34;;;17.70;68.13
2397;BME280;1209;48.410;9.054;2023-06-14T06:52:36;95883.94;;;17.92;69.73
2397;BME280;1209;48.410;9.054;2023-06-14T06:55:02;95887.38;;;18.28;71.63
2397;BME280;1209;48.410;9.054;2023-06-14T06:57:27;95893.13;;;18.48;69.11
2397;BME280;1209;48.410;9.054;2023-06-14T06:59:54;95889.06;;;18.57;65.62
2397;BME280;1209;48.410;9.054;2023-06-14T07:02:19;95887.94;;;18.65;65.71
2397;BME280;1209;48.410;9.054;2023-06-14T07:04:45;95893.09;;;18.60;64.77
2397;BME280;1209;48.410;9.054;2023-06-14T07:07:10;95894.31;;;18.80;66.14
2397;BME280;1209;48.410;9.054;2023-06-14T07:09:36;95900.59;;;18.91;63.34
2397;BME280;1209;48.410;9.054;2023-06-14T07:12:02;95893.28;;;18.81;61.96
2397;BME280;1209;48.410;9.054;2023-06-14T07:14:27;95896.97;;;18.80;62.75
2397;BME280;1209;48.410;9.054;2023-06-14T07:16:52;95898.19;;;18.90;62.79
2397;BME280;1209;48.410;9.054;2023-06-14T07:19:17;95907.50;;;19.04;62.00
2397;BME280;1209;48.410;9.054;2023-06-14T07:21:43;95908.72;;;19.13;62.42
2397;BME280;1209;48.410;9.054;2023-06-14T07:24:08;95905.16;;;19.07;61.29
2397;BME280;1209;48.410;9.054;2023-06-14T07:26:34;95903.88;;;19.10;61.52
2397;BME280;1209;48.410;9.054;2023-06-14T07:29:00;95902.25;;;19.37;61.93
2397;BME280;1209;48.410;9.054;2023-06-14T07:31:26;95902.31;;;19.54;60.10
2397;BME280;1209;48.410;9.054;2023-06-14T07:33:51;95911.19;;;19.48;57.89
2397;BME280;1209;48.410;9.054;2023-06-14T07:36:17;95909.38;;;19.82;58.27
2397;BME280;1209;48.410;9.054;2023-06-14T07:38:43;95904.34;;;19.80;58.52
2397;BME280;1209;48.410;9.054;2023-06-14T07:41:08;95918.09;;;19.94;58.96
2397;BME280;1209;48.410;9.054;2023-06-14T07:43:34;95919.97;;;20.16;57.86
2397;BME280;1209;48.410;9.054;2023-06-14T07:45:59;95911.53;;;20.35;57.94
2397;BME280;1209;48.410;9.054;2023-06-14T07:48:25;95918.91;;;20.33;56.53
2397;BME280;1209;48.410;9.054;2023-06-14T07:50:50;95914.28;;;20.40;57.70
2397;BME280;1209;48.410;9.054;2023-06-14T07:53:15;95924.72;;;20.47;57.59
2397;BME280;1209;48.410;9.054;2023-06-14T07:55:41;95919.97;;;20.49;57.00
2397;BME280;1209;48.410;9.054;2023-06-14T07:58:07;95923.84;;;20.41;57.07
2397;BME280;1209;48.410;9.054;2023-06-14T08:00:32;95923.84;;;20.41;55.68
2397;BME280;1209;48.410;9.054;2023-06-14T08:02:58;95928.97;;;20.31;56.36
2397;BME280;1209;48.410;9.054;2023-06-14T08:05:27;95925.91;;;20.78;56.94
2397;BME280;1209;48.410;9.054;2023-06-14T08:07:53;95929.88;;;20.97;55.50
2397;BME280;1209;48.410;9.054;2023-06-14T08:10:20;95938.53;;;21.15;55.97
2397;BME280;1209;48.410;9.054;2023-06-14T08:12:46;95935.28;;;21.08;55.64
2397;BME280;1209;48.410;9.054;2023-06-14T08:15:11;95929.53;;;21.16;53.52
2397;BME280;1209;48.410;9.054;2023-06-14T08:17:37;95933.63;;;21.23;54.14
2397;BME280;1209;48.410;9.054;2023-06-14T08:20:03;95921.44;;;21.05;54.38
2397;BME280;1209;48.410;9.054;2023-06-14T08:22:31;95931.78;;;21.51;53.44
2397;BME280;1209;48.410;9.054;2023-06-14T08:24:59;95927.06;;;21.85;53.01
2397;BME280;1209;48.410;9.054;2023-06-14T08:27:26;95936.53;;;21.76;52.65
2397;BME280;1209;48.410;9.054;2023-06-14T08:29:51;95933.84;;;21.76;52.49
2397;BME280;1209;48.410;9.054;2023-06-14T08:32:16;95939.66;;;21.99;52.19
2397;BME280;1209;48.410;9.054;2023-06-14T08:34:42;95940.28;;;22.07;52.56
2397;BME280;1209;48.410;9.054;2023-06-14T08:37:07;95943.22;;;22.47;51.09
2397;BME280;1209;48.410;9.054;2023-06-14T08:39:32;95934.22;;;22.58;51.67
2397;BME280;1209;48.410;9.054;2023-06-14T08:41:58;95935.94;;;22.80;51.57
2397;BME280;1209;48.410;9.054;2023-06-14T08:44:23;95942.97;;;23.01;50.29
2397;BME280;1209;48.410;9.054;2023-06-14T08:46:49;95940.78;;;22.88;50.66
2397;BME280;1209;48.410;9.054;2023-06-14T08:49:16;95941.72;;;23.19;51.49
2397;BME280;1209;48.410;9.054;2023-06-14T08:51:43;95948.56;;;23.00;50.21
2397;BME280;1209;48.410;9.054;2023-06-14T08:54:10;95940.84;;;22.98;49.64
2397;BME280;1209;48.410;9.054;2023-06-14T08:56:38;95939.28;;;23.17;50.67
2397;BME280;1209;48.410;9.054;2023-06-14T08:59:04;95938.53;;;23.22;49.98
2397;BME280;1209;48.410;9.054;2023-06-14T09:01:35;95944.22;;;23.56;48.99
2397;BME280;1209;48.410;9.054;2023-06-14T09:04:01;95946.31;;;23.44;49.09
2397;BME280;1209;48.410;9.054;2023-06-14T09:06:27;95945.34;;;23.70;48.44
2397;BME280;1209;48.410;9.054;2023-06-14T09:08:54;95951.75;;;23.84;47.75
2397;BME280;1209;48.410;9.054;2023-06-14T09:11:20;95948.81;;;23.71;47.58
2397;BME280;1209;48.410;9.054;2023-06-14T09:13:46;95950.66;;;23.75;48.12
2397;BME280;1209;48.410;9.054;2023-06-14T09:16:12;95948.25;;;24.09;47.06
2397;BME280;1209;48.410;9.054;2023-06-14T09:18:39;95951.47;;;23.86;46.72
2397;BME280;1209;48.410;9.054;2023-06-14T09:21:07;95947.72;;;24.07;48.56
2397;BME280;1209;48.410;9.054;2023-06-14T09:23:35;95953.88;;;24.48;46.31
2397;BME280;1209;48.410;9.054;2023-06-14T09:26:01;95946.41;;;24.35;47.06
2397;BME280;1209;48.410;9.054;2023-06-14T09:28:31;95950.31;;;24.84;46.29
2397;BME280;1209;48.410;9.054;2023-06-14T09:30:56;95949.56;;;24.73;45.57
2397;BME280;1209;48.410;9.054;2023-06-14T09:33:21;95953.03;;;24.68;45.84
2397;BME280;1209;48.410;9.054;2023-06-14T09:35:51;95944.78;;;25.34;44.10
2397;BME280;1209;48.410;9.054;2023-06-14T09:38:16;95949.38;;;25.24;44.62
2397;BME280;1209;48.410;9.054;2023-06-14T09:40:42;95957.91;;;25.31;43.86
2397;BME280;1209;48.410;9.054;2023-06-14T09:43:07;95967.06;;;25.15;44.31
2397;BME280;1209;48.410;9.054;2023-06-14T09:45:37;95960.09;;;25.24;45.07
2397;BME280;1209;48.410;9.054;2023-06-14T09:48:04;95957.50;;;25.53;42.78
2397;BME280;1209;48.410;9.054;2023-06-14T09:50:31;95960.06;;;25.78;43.70
2397;BME280;1209;48.410;9.054;2023-06-14T09:53:02;95958.06;;;25.55;42.53
2397;BME280;1209;48.410;9.054;2023-06-14T09:55:30;95959.41;;;25.47;41.63
2397;BME280;1209;48.410;9.054;2023-06-14T09:57:56;95951.72;;;25.85;43.15
2397;BME280;1209;48.410;9.054;2023-06-14T10:00:23;95951.53;;;25.76;43.84
2397;BME280;1209;48.410;9.054;2023-06-14T10:02:54;95952.59;;;25.75;43.85
2397;BME280;1209;48.410;9.054;2023-06-14T10:08:48;95948.03;;;26.15;42.97
2397;BME280;1209;48.410;9.054;2023-06-14T10:11:14;95946.50;;;26.03;42.32
2397;BME280;1209;48.410;9.054;2023-06-14T10:13:40;95944.84;;;26.42;41.78
2397;BME280;1209;48.410;9.054;2023-06-14T10:16:27;95950.47;;;26.69;41.12
2397;BME280;1209;48.410;9.054;2023-06-14T10:19:13;95953.00;;;26.26;41.49
2397;BME280;1209;48.410;9.054;2023-06-14T10:21:55;95952.53;;;26.48;41.31
2397;BME280;1209;48.410;9.054;2023-06-14T10:24:39;95951.50;;;26.73;40.48
2397;BME280;1209;48.410;9.054;2023-06-14T10:27:06;95947.94;;;27.07;39.47
2397;BME280;1209;48.410;9.054;2023-06-14T10:32:25;95945.34;;;27.20;38.82
2397;BME280;1209;48.410;9.054;2023-06-14T10:34:57;95942.06;;;27.05;39.62
2397;BME280;1209;48.410;9.054;2023-06-14T10:37:23;95951.44;;;27.69;38.71
2397;BME280;1209;48.410;9.054;2023-06-14T10:39:52;95948.81;;;27.64;38.28
2397;BME280;1209;48.410;9.054;2023-06-14T10:42:18;95945.81;;;27.84;36.16
2397;BME280;1209;48.410;9.054;2023-06-14T10:50:08;95953.09;;;27.83;37.24
2397;BME280;1209;48.410;9.054;2023-06-14T10:52:43;95951.03;;;28.13;36.78
2397;BME280;1209;48.410;9.054;2023-06-14T10:57:37;95947.88;;;27.92;36.74
2397;BME280;1209;48.410;9.054;2023-06-14T11:00:06;95944.22;;;27.45;37.25
2397;BME280;1209;48.410;9.054;2023-06-14T11:05:54;95947.38;;;27.71;36.09
2397;BME280;1209;48.410;9.054;2023-06-14T11:11:07;95941.25;;;28.03;36.82
2397;BME280;1209;48.410;9.054;2023-06-14T11:13:34;95950.69;;;28.01;36.58
2397;BME280;1209;48.410;9.054;2023-06-14T11:19:23;95936.41;;;28.19;36.91
2397;BME280;1209;48.410;9.054;2023-06-14T11:21:49;95943.00;;;29.41;35.64
2397;BME280;1209;48.410;9.054;2023-06-14T11:24:15;95947.03;;;29.03;36.67
2397;BME280;1209;48.410;9.054;2023-06-14T11:26:40;95943.50;;;28.75;35.19
2397;BME280;1209;48.410;9.054;2023-06-14T11:29:06;95932.94;;;28.18;36.63
2397;BME280;1209;48.410;9.054;2023-06-14T11:31:31;95932.69;;;29.07;34.24
2397;BME280;1209;48.410;9.054;2023-06-14T11:33:58;95937.34;;;28.74;34.79
2397;BME280;1209;48.410;9.054;2023-06-14T11:39:45;95938.91;;;28.48;34.95
2397;BME280;1209;48.410;9.054;2023-06-14T11:42:16;95938.81;;;28.53;34.18
2397;BME280;1209;48.410;9.054;2023-06-14T11:44:42;95934.34;;;28.62;33.09
2397;BME280;1209;48.410;9.054;2023-06-14T11:47:07;95934.19;;;28.86;33.59
2397;BME280;1209;48.410;9.054;2023-06-14T11:49:36;95935.84;;;29.37;33.33
2397;BME280;1209;48.410;9.054;2023-06-14T11:52:01;95935.53;;;29.25;34.42
2397;BME280;1209;48.410;9.054;2023-06-14T11:54:27;95927.00;;;29.09;34.42
2397;BME280;1209;48.410;9.054;2023-06-14T11:56:52;95931.81;;;29.62;34.51
2397;BME280;1209;48.410;9.054;2023-06-14T11:59:18;95940.19;;;29.96;34.01
2397;BME280;1209;48.410;9.054;2023-06-14T12:01:43;95933.47;;;29.71;34.70
2397;BME280;1209;48.410;9.054;2023-06-14T12:04:09;95941.59;;;30.16;32.39
2397;BME280;1209;48.410;9.054;2023-06-14T12:06:34;95930.66;;;29.40;33.55
2397;BME280;1209;48.410;9.054;2023-06-14T12:09:05;95936.72;;;29.60;32.59
2397;BME280;1209;48.410;9.054;2023-06-14T12:11:38;95937.56;;;29.33;32.00
2397;BME280;1209;48.410;9.054;2023-06-14T12:14:04;95935.13;;;29.59;33.81
2397;BME280;1209;48.410;9.054;2023-06-14T12:16:32;95929.84;;;29.54;32.11
2397;BME280;1209;48.410;9.054;2023-06-14T12:19:00;95935.50;;;29.66;32.72
2397;BME280;1209;48.410;9.054;2023-06-14T12:21:27;95936.44;;;29.84;32.55
2397;BME280;1209;48.410;9.054;2023-06-14T12:23:54;95927.97;;;29.27;31.70
2397;BME280;1209;48.410;9.054;2023-06-14T12:26:20;95932.19;;;29.69;32.66
2397;BME280;1209;48.410;9.054;2023-06-14T12:28:46;95931.66;;;29.44;32.56
2397;BME280;1209;48.410;9.054;2023-06-14T12:31:13;95939.34;;;30.10;30.86
2397;BME280;1209;48.410;9.054;2023-06-14T12:33:40;95929.41;;;30.19;30.04
2397;BME280;1209;48.410;9.054;2023-06-14T12:36:10;95926.97;;;31.01;31.06
2397;BME280;1209;48.410;9.054;2023-06-14T12:38:36;95932.53;;;30.34;32.09
2397;BME280;1209;48.410;9.054;2023-06-14T12:41:01;95920.25;;;29.61;32.64
2397;BME280;1209;48.410;9.054;2023-06-14T12:43:27;95926.78;;;29.83;32.90
2397;BME280;1209;48.410;9.054;2023-06-14T12:45:53;95922.63;;;29.63;32.41
2397;BME280;1209;48.410;9.054;2023-06-14T12:48:19;95931.75;;;29.53;32.52
2397;BME280;1209;48.410;9.054;2023-06-14T12:50:45;95930.69;;;30.21;32.31
2397;BME280;1209;48.410;9.054;2023-06-14T12:53:10;95933.59;;;30.56;30.89
2397;BME280;1209;48.410;9.054;2023-06-14T12:55:36;95929.25;;;31.17;31.24
2397;BME280;1209;48.410;9.054;2023-06-14T12:58:01;95929.88;;;30.43;32.29
2397;BME280;1209;48.410;9.054;2023-06-14T13:00:27;95931.94;;;30.15;33.23
2397;BME280;1209;48.410;9.054;2023-06-14T13:02:52;95937.19;;;30.74;31.10
2397;BME280;1209;48.410;9.054;2023-06-14T13:05:18;95934.81;;;30.19;31.60
2397;BME280;1209;48.410;9.054;2023-06-14T13:07:43;95932.84;;;30.11;31.73
2397;BME280;1209;48.410;9.054;2023-06-14T13:10:09;95940.34;;;29.77;31.01
2397;BME280;1209;48.410;9.054;2023-06-14T13:12:35;95942.09;;;30.18;31.41
2397;BME280;1209;48.410;9.054;2023-06-14T13:15:00;95936.69;;;30.72;30.34
2397;BME280;1209;48.410;9.054;2023-06-14T13:17:26;95937.69;;;30.76;29.59
2397;BME280;1209;48.410;9.054;2023-06-14T13:19:51;95942.47;;;30.79;29.69
2397;BME280;1209;48.410;9.054;2023-06-14T13:22:16;95934.69;;;30.55;29.54
2397;BME280;1209;48.410;9.054;2023-06-14T13:24:42;95933.78;;;30.99;29.96
2397;BME280;1209;48.410;9.054;2023-06-14T13:27:07;95939.69;;;30.70;29.60
2397;BME280;1209;48.410;9.054;2023-06-14T13:29:33;95936.47;;;30.90;30.25
2397;BME280;1209;48.410;9.054;2023-06-14T13:32:01;95929.88;;;30.43;31.18
2397;BME280;1209;48.410;9.054;2023-06-14T13:34:26;95929.09;;;30.20;31.54
2397;BME280;1209;48.410;9.054;2023-06-14T13:36:52;95918.00;;;29.99;32.79
2397;BME280;1209;48.410;9.054;2023-06-14T13:39:17;95921.63;;;29.95;33.20
2397;BME280;1209;48.410;9.054;2023-06-14T13:41:42;95940.84;;;30.47;31.39
2397;BME280;1209;48.410;9.054;2023-06-14T13:44:08;95930.69;;;29.99;31.53
2397;BME280;1209;48.410;9.054;2023-06-14T13:46:36;95926.41;;;30.43;31.07
2397;BME280;1209;48.410;9.054;2023-06-14T13:49:01;95926.09;;;30.75;30.58